createdAt,value
2022-09-19T00:01:36.203Z,85.38
2022-09-19T00:04:11.966Z,84.25
2022-09-19T00:06:40.509Z,85.24
2022-09-19T00:09:08.789Z,85.70
2022-09-19T00:11:35.152Z,85.33
2022-09-19T00:14:02.040Z,85.57
2022-09-19T00:16:34.781Z,85.54
2022-09-19T00:19:04.141Z,85.62
2022-09-19T00:21:33.955Z,86.23
2022-09-19T00:24:19.584Z,85.71
2022-09-19T00:26:46.406Z,84.66
2022-09-19T00:29:14.151Z,84.87
2022-09-19T00:31:44.245Z,84.35
2022-09-19T00:34:17.042Z,85.08
2022-09-19T00:36:45.871Z,84.45
2022-09-19T00:39:15.317Z,86.41
2022-09-19T00:41:43.056Z,86.24
2022-09-19T00:44:28.056Z,85.42
2022-09-19T00:47:10.265Z,85.28
2022-09-19T00:49:39.828Z,85.01
2022-09-19T00:52:11.302Z,86.94
2022-09-19T00:54:41.597Z,86.67
2022-09-19T00:57:11.844Z,85.78
2022-09-19T00:59:42.143Z,87.78
2022-09-19T01:02:09.950Z,86.67
2022-09-19T01:04:42.932Z,85.85
2022-09-19T01:07:26.809Z,87.26
2022-09-19T01:10:04.375Z,87.78
2022-09-19T01:12:40.283Z,86.82
2022-09-19T01:15:29.630Z,87.42
2022-09-19T01:18:01.196Z,89.48
2022-09-19T01:20:45.895Z,89.38
2022-09-19T01:23:27.316Z,90.61
2022-09-19T01:26:19.993Z,91.53
2022-09-19T01:29:00.153Z,91.33
2022-09-19T01:31:30.556Z,91.44
2022-09-19T01:34:13.264Z,91.71
2022-09-19T01:37:05.712Z,91.31
2022-09-19T01:39:35.675Z,91.98
2022-09-19T01:42:02.361Z,91.62
2022-09-19T01:44:30.889Z,92.12
2022-09-19T01:47:19.384Z,92.47
2022-09-19T01:49:58.427Z,93.44
2022-09-19T01:52:31.537Z,91.93
2022-09-19T01:55:10.678Z,93.30
2022-09-19T01:58:08.709Z,93.53
2022-09-19T02:00:39.605Z,95.61
2022-09-19T02:03:06.054Z,94.33
2022-09-19T02:06:00.527Z,93.99
2022-09-19T02:08:41.141Z,94.49
2022-09-19T02:11:12.976Z,93.94
2022-09-19T02:13:45.244Z,95.95
2022-09-19T02:16:21.724Z,96.50
2022-09-19T02:18:54.316Z,96.54
2022-09-19T02:21:29.960Z,95.71
2022-09-19T02:23:57.527Z,95.59
2022-09-19T02:26:24.025Z,93.74
2022-09-19T02:28:55.527Z,93.56
2022-09-19T02:31:28.210Z,94.33
2022-09-19T02:33:59.916Z,95.77
2022-09-19T02:36:40.496Z,95.15
2022-09-19T02:39:27.391Z,94.47
2022-09-19T02:42:10.105Z,94.21
2022-09-19T02:45:04.037Z,95.20
2022-09-19T02:47:49.975Z,95.28
2022-09-19T02:50:25.125Z,93.31
2022-09-19T02:52:53.558Z,93.00
2022-09-19T02:55:34.086Z,92.99
2022-09-19T02:58:03.529Z,94.10
2022-09-19T03:00:33.322Z,93.96
2022-09-19T03:03:25.298Z,94.74
2022-09-19T03:05:54.843Z,93.57
2022-09-19T03:08:25.178Z,93.34
2022-09-19T03:10:57.684Z,94.37
2022-09-19T03:13:25.527Z,94.00
2022-09-19T03:16:07.505Z,94.24
2022-09-19T03:18:36.419Z,94.49
2022-09-19T03:21:05.063Z,95.80
2022-09-19T03:23:41.507Z,94.39
2022-09-19T03:26:10.074Z,94.58
2022-09-19T03:28:36.522Z,93.29
2022-09-19T03:31:02.910Z,92.76
2022-09-19T03:33:29.574Z,91.72
2022-09-19T03:36:00.225Z,91.95
2022-09-19T03:38:27.559Z,91.16
2022-09-19T03:40:53.954Z,92.00
2022-09-19T03:43:21.211Z,90.26
2022-09-19T03:45:47.662Z,91.42
2022-09-19T03:48:14.443Z,91.15
2022-09-19T03:50:40.903Z,90.67
2022-09-19T03:53:12.708Z,91.01
2022-09-19T03:55:39.182Z,90.41
2022-09-19T03:58:05.640Z,90.26
2022-09-19T04:00:32.177Z,90.41
2022-09-19T04:02:58.563Z,90.31
2022-09-19T04:05:25.082Z,91.31
2022-09-19T04:07:51.874Z,91.25
2022-09-19T04:10:19.332Z,91.80
2022-09-19T04:12:45.678Z,91.21
2022-09-19T04:15:12.122Z,90.66
2022-09-19T04:17:42.644Z,90.47
2022-09-19T04:20:11.460Z,90.81
2022-09-19T04:22:38.493Z,90.70
2022-09-19T04:25:11.844Z,90.90
2022-09-19T04:27:39.062Z,90.58
2022-09-19T04:30:06.862Z,90.67
2022-09-19T04:32:33.256Z,90.27
2022-09-19T04:35:00.677Z,90.12
2022-09-19T04:37:30.475Z,89.39
2022-09-19T04:39:57.302Z,88.94
2022-09-19T04:42:24.699Z,89.65
2022-09-19T04:44:54.768Z,90.21
2022-09-19T04:47:21.825Z,89.66
2022-09-19T04:49:48.259Z,88.98
2022-09-19T04:52:14.665Z,89.28
2022-09-19T04:54:42.405Z,88.74
2022-09-19T04:57:09.558Z,88.47
2022-09-19T04:59:36.579Z,89.56
2022-09-19T05:02:07.031Z,88.66
2022-09-19T05:04:33.803Z,87.96
2022-09-19T05:07:01.055Z,88.85
2022-09-19T05:09:27.782Z,88.72
2022-09-19T05:11:55.033Z,89.89
2022-09-19T05:14:23.034Z,90.79
2022-09-19T05:16:51.178Z,90.87
2022-09-19T05:19:22.950Z,91.00
2022-09-19T05:21:50.430Z,90.71
2022-09-19T05:24:17.578Z,88.93
2022-09-19T05:26:44.311Z,88.63
2022-09-19T05:29:13.721Z,89.93
2022-09-19T05:31:41.238Z,89.56
2022-09-19T05:34:07.690Z,89.67
2022-09-19T05:36:34.069Z,89.95
2022-09-19T05:39:00.431Z,89.27
2022-09-19T05:41:26.834Z,89.68
2022-09-19T05:43:53.456Z,89.42
2022-09-19T05:46:21.632Z,89.66
2022-09-19T05:48:48.980Z,90.00
2022-09-19T05:51:15.546Z,88.41
2022-09-19T05:53:54.179Z,88.27
2022-09-19T05:56:20.976Z,89.81
2022-09-19T05:58:47.407Z,89.68
2022-09-19T06:01:14.862Z,88.00
2022-09-19T06:03:41.522Z,88.23
2022-09-19T06:06:14.791Z,89.13
2022-09-19T06:08:43.246Z,89.05
2022-09-19T06:11:10.429Z,88.16
2022-09-19T06:13:56.083Z,87.67
2022-09-19T06:16:23.079Z,87.20
2022-09-19T06:18:50.134Z,88.28
2022-09-19T06:21:16.626Z,88.69
2022-09-19T06:23:43.468Z,86.63
2022-09-19T06:26:10.391Z,87.07
2022-09-19T06:28:36.767Z,86.73
2022-09-19T06:31:04.592Z,86.29
2022-09-19T06:33:31.924Z,86.51
2022-09-19T06:36:01.959Z,85.76
2022-09-19T06:38:29.715Z,85.95
2022-09-19T06:40:56.075Z,86.80
2022-09-19T06:43:22.976Z,85.31
2022-09-19T06:45:49.756Z,83.35
2022-09-19T06:48:16.552Z,84.88
2022-09-19T06:50:47.401Z,85.51
2022-09-19T06:53:14.762Z,85.12
2022-09-19T06:55:46.309Z,83.85
2022-09-19T06:58:14.595Z,83.24
2022-09-19T07:00:44.165Z,82.59
2022-09-19T07:03:14.017Z,83.18
2022-09-19T07:05:43.794Z,81.72
2022-09-19T07:08:13.676Z,81.60
2022-09-19T07:10:41.001Z,80.17
2022-09-19T07:13:07.676Z,81.70
2022-09-19T07:15:36.130Z,80.99
2022-09-19T07:18:03.949Z,81.11
2022-09-19T07:20:30.314Z,78.67
2022-09-19T07:23:17.333Z,79.71
2022-09-19T07:25:44.623Z,79.74
2022-09-19T07:28:15.338Z,81.27
2022-09-19T07:30:44.536Z,79.81
2022-09-19T07:33:13.322Z,79.25
2022-09-19T07:35:43.453Z,79.77
2022-09-19T07:38:13.868Z,78.58
2022-09-19T07:40:40.723Z,75.30
2022-09-19T07:43:07.139Z,77.72
2022-09-19T07:45:36.664Z,76.33
2022-09-19T07:48:04.857Z,75.80
2022-09-19T07:50:31.796Z,76.63
2022-09-19T07:53:00.161Z,74.71
2022-09-19T07:55:27.144Z,75.92
2022-09-19T07:57:56.595Z,74.89
2022-09-19T08:00:24.219Z,71.17
2022-09-19T08:02:58.190Z,70.01
2022-09-19T08:05:25.579Z,72.36
2022-09-19T08:07:52.504Z,72.25
2022-09-19T08:10:19.801Z,73.30
2022-09-19T08:12:46.595Z,73.18
2022-09-19T08:15:16.421Z,73.30
2022-09-19T08:17:59.060Z,73.38
2022-09-19T08:20:32.117Z,71.91
2022-09-19T08:23:06.639Z,72.52
2022-09-19T08:25:35.816Z,71.28
2022-09-19T08:28:06.075Z,71.92
2022-09-19T08:30:37.347Z,68.97
2022-09-19T08:33:04.792Z,68.36
2022-09-19T08:35:34.263Z,70.41
2022-09-19T08:38:01.926Z,68.87
2022-09-19T08:40:32.171Z,69.62
2022-09-19T08:43:35.618Z,68.80
2022-09-19T08:46:21.401Z,69.86
2022-09-19T08:49:20.301Z,71.93
2022-09-19T08:52:13.359Z,70.04
2022-09-19T08:54:42.062Z,68.31
2022-09-19T08:57:32.368Z,65.02
2022-09-19T09:00:03.987Z,67.66
2022-09-19T09:03:03.620Z,67.69
2022-09-19T09:05:43.476Z,67.83
2022-09-19T09:08:43.952Z,66.14
2022-09-19T09:11:35.228Z,67.70
2022-09-19T09:14:20.361Z,63.81
2022-09-19T09:17:03.108Z,63.17
2022-09-19T09:19:56.659Z,65.57
2022-09-19T09:22:39.366Z,64.34
2022-09-19T09:25:14.731Z,61.37
2022-09-19T09:27:58.368Z,62.66
2022-09-19T09:30:24.858Z,64.40
2022-09-19T09:33:15.126Z,60.79
2022-09-19T09:35:46.905Z,62.41
2022-09-19T09:38:27.187Z,61.63
2022-09-19T09:41:20.303Z,64.50
2022-09-19T09:44:21.994Z,61.99
2022-09-19T09:46:51.227Z,60.47
2022-09-19T09:49:19.766Z,62.82
2022-09-19T09:51:57.547Z,58.74
2022-09-19T09:54:48.890Z,61.25
2022-09-19T09:57:48.657Z,60.51
2022-09-19T10:00:36.043Z,58.65
2022-09-19T10:03:35.126Z,58.25
2022-09-19T10:06:28.595Z,61.48
2022-09-19T10:09:09.688Z,60.07
2022-09-19T10:14:30.474Z,60.35
2022-09-19T10:17:02.517Z,58.59
2022-09-19T10:19:37.626Z,61.16
2022-09-19T10:22:06.367Z,60.73
2022-09-19T10:24:54.093Z,59.24
2022-09-19T10:27:26.389Z,60.29
2022-09-19T10:29:58.893Z,58.93
2022-09-19T10:32:28.549Z,61.91
2022-09-19T10:34:55.039Z,60.11
2022-09-19T10:37:27.490Z,59.40
2022-09-19T10:40:00.682Z,62.04
2022-09-19T10:42:36.109Z,60.92
2022-09-19T10:45:18.115Z,64.62
2022-09-19T10:47:45.291Z,64.71
2022-09-19T10:50:17.535Z,61.07
2022-09-19T10:52:51.971Z,59.52
2022-09-19T10:55:23.048Z,59.09
2022-09-19T10:58:00.455Z,58.39
2022-09-19T11:00:31.334Z,57.04
2022-09-19T11:03:04.056Z,60.78
2022-09-19T11:05:33.919Z,57.84
2022-09-19T11:08:01.183Z,57.77
2022-09-19T11:10:39.166Z,55.96
2022-09-19T11:13:23.806Z,55.62
2022-09-19T11:16:31.586Z,57.81
2022-09-19T11:19:30.076Z,52.91
2022-09-19T11:21:56.494Z,56.54
2022-09-19T11:24:45.667Z,55.78
2022-09-19T11:27:39.889Z,54.10
2022-09-19T11:30:20.129Z,53.02
2022-09-19T11:36:40.364Z,53.81
2022-09-19T11:42:20.074Z,53.71
2022-09-19T11:44:58.662Z,51.37
2022-09-19T11:47:28.554Z,50.53
2022-09-19T11:50:21.555Z,52.03
2022-09-19T11:53:33.067Z,50.32
2022-09-19T11:56:18.489Z,49.96
2022-09-19T11:59:05.959Z,51.39
2022-09-19T12:02:02.250Z,49.92
2022-09-19T12:04:59.682Z,54.62
2022-09-19T12:07:48.509Z,57.72
2022-09-19T12:10:22.743Z,58.10
2022-09-19T12:13:05.124Z,57.42
2022-09-19T12:15:37.083Z,54.37
2022-09-19T12:18:13.909Z,56.12
2022-09-19T12:20:46.271Z,52.97
2022-09-19T12:23:59.781Z,51.61
2022-09-19T12:26:34.850Z,51.63
2022-09-19T12:29:24.921Z,55.09
2022-09-19T12:32:01.920Z,51.83
2022-09-19T12:34:40.536Z,55.22
2022-09-19T12:37:31.258Z,53.82
2022-09-19T12:40:30.024Z,55.64
2022-09-19T12:43:13.852Z,52.09
2022-09-19T12:46:10.363Z,50.73
2022-09-19T12:48:42.889Z,53.30
2022-09-19T12:51:14.198Z,53.29
2022-09-19T12:53:45.822Z,52.92
2022-09-19T12:56:29.148Z,53.39
2022-09-19T12:59:15.020Z,53.82
2022-09-19T13:02:00.362Z,53.24
2022-09-19T13:04:31.784Z,52.79
2022-09-19T13:07:10.158Z,53.51
2022-09-19T13:09:49.939Z,56.95
2022-09-19T13:12:26.634Z,55.42
2022-09-19T13:14:59.600Z,53.29
2022-09-19T13:17:46.066Z,53.31
2022-09-19T13:20:44.160Z,53.12
2022-09-19T13:23:33.995Z,50.99
2022-09-19T13:26:20.325Z,49.67
2022-09-19T13:28:52.857Z,53.24
2022-09-19T13:31:23.530Z,51.93
2022-09-19T13:33:58.551Z,52.07
2022-09-19T13:36:24.958Z,53.02
2022-09-19T13:38:54.826Z,53.02
2022-09-19T13:41:29.764Z,54.64
2022-09-19T13:44:07.537Z,54.21
2022-09-19T13:46:53.987Z,54.19
2022-09-19T13:49:39.257Z,53.72
2022-09-19T13:52:22.349Z,56.21
2022-09-19T13:54:51.915Z,56.17
2022-09-19T13:57:29.611Z,53.89
2022-09-19T13:59:59.471Z,55.62
2022-09-19T14:02:37.382Z,54.28
2022-09-19T14:05:23.826Z,55.78
2022-09-19T14:10:54.811Z,51.82
2022-09-19T14:13:21.545Z,53.56
2022-09-19T14:16:00.284Z,55.55
2022-09-19T14:18:47.970Z,55.74
2022-09-19T14:21:29.850Z,55.17
2022-09-19T14:24:18.644Z,55.26
2022-09-19T14:27:05.715Z,54.99
2022-09-19T14:29:44.616Z,55.00
2022-09-19T14:32:31.964Z,54.77
2022-09-19T14:35:14.568Z,53.25
2022-09-19T14:38:04.566Z,52.41
2022-09-19T14:40:49.902Z,53.48
2022-09-19T14:44:06.266Z,52.82
2022-09-19T14:46:46.417Z,52.37
2022-09-19T14:49:22.008Z,53.07
2022-09-19T14:52:12.993Z,56.17
2022-09-19T14:54:50.688Z,55.38
2022-09-19T14:57:21.499Z,54.38
2022-09-19T14:59:49.953Z,53.37
2022-09-19T15:02:30.590Z,52.40
2022-09-19T15:05:20.312Z,51.33
2022-09-19T15:07:46.911Z,50.06
2022-09-19T15:10:41.043Z,49.30
2022-09-19T15:13:16.366Z,49.30
2022-09-19T15:15:48.940Z,49.90
2022-09-19T15:18:41.610Z,52.07
2022-09-19T15:21:15.833Z,50.44
2022-09-19T15:23:45.096Z,51.13
2022-09-19T15:26:26.985Z,50.24
2022-09-19T15:29:02.368Z,50.22
2022-09-19T15:31:33.449Z,52.40
2022-09-19T15:34:11.760Z,52.31
2022-09-19T15:36:38.482Z,51.19
2022-09-19T15:39:06.756Z,51.38
2022-09-19T15:41:34.819Z,52.31
2022-09-19T15:44:08.019Z,52.62
2022-09-19T15:46:47.042Z,54.49
2022-09-19T15:49:31.724Z,54.14
2022-09-19T15:52:20.864Z,55.29
2022-09-19T15:54:53.179Z,56.33
2022-09-19T15:57:33.077Z,57.71
2022-09-19T16:00:04.799Z,57.95
2022-09-19T16:02:39.890Z,58.03
2022-09-19T16:05:20.778Z,58.56
2022-09-19T16:08:20.579Z,59.89
2022-09-19T16:10:54.993Z,59.39
2022-09-19T16:13:40.131Z,58.46
2022-09-19T16:16:36.445Z,58.97
2022-09-19T16:19:04.007Z,59.95
2022-09-19T16:21:41.030Z,55.66
2022-09-19T16:24:15.375Z,56.69
2022-09-19T16:26:43.216Z,58.37
2022-09-19T16:29:13.786Z,58.04
2022-09-19T16:31:45.246Z,57.99
2022-09-19T16:34:20.877Z,60.46
2022-09-19T16:36:49.799Z,62.89
2022-09-19T16:39:32.641Z,64.65
2022-09-19T16:42:20.201Z,65.97
2022-09-19T16:44:51.860Z,67.25
2022-09-19T16:47:22.683Z,67.71
2022-09-19T16:49:51.957Z,67.17
2022-09-19T16:52:22.248Z,68.21
2022-09-19T16:54:49.437Z,67.79
2022-09-19T16:57:20.395Z,67.32
2022-09-19T16:59:49.983Z,66.61
2022-09-19T17:02:23.262Z,65.77
2022-09-19T17:04:50.332Z,65.69
2022-09-19T17:07:20.438Z,65.24
2022-09-19T17:09:56.893Z,65.52
2022-09-19T17:12:23.821Z,65.98
2022-09-19T17:14:50.771Z,65.56
2022-09-19T17:17:19.112Z,67.04
2022-09-19T17:19:46.517Z,67.40
2022-09-19T17:22:14.994Z,68.17
2022-09-19T17:24:42.838Z,68.87
2022-09-19T17:27:10.038Z,67.29
2022-09-19T17:29:36.765Z,68.74
2022-09-19T17:32:05.272Z,69.01
2022-09-19T17:34:31.722Z,70.78
2022-09-19T17:36:58.418Z,71.60
2022-09-19T17:39:25.060Z,71.67
2022-09-19T17:41:53.505Z,72.82
2022-09-19T17:44:20.356Z,72.42
2022-09-19T17:46:47.836Z,71.77
2022-09-19T17:49:14.267Z,71.28
2022-09-19T17:51:40.683Z,72.36
2022-09-19T17:54:07.675Z,72.21
2022-09-19T17:56:35.279Z,72.19
2022-09-19T17:59:03.209Z,73.39
2022-09-19T18:01:50.162Z,73.54
2022-09-19T18:04:18.026Z,72.71
2022-09-19T18:06:44.992Z,74.44
2022-09-19T18:09:17.191Z,75.12
2022-09-19T18:11:43.698Z,75.97
2022-09-19T18:14:15.009Z,76.22
2022-09-19T18:16:43.599Z,76.57
2022-09-19T18:19:11.223Z,76.62
2022-09-19T18:21:40.845Z,76.34
2022-09-19T18:24:10.744Z,77.03
2022-09-19T18:26:41.362Z,77.56
2022-09-19T18:29:11.694Z,77.89
2022-09-19T18:31:38.105Z,78.01
2022-09-19T18:34:07.668Z,77.73
2022-09-19T18:36:36.200Z,78.48
2022-09-19T18:39:04.795Z,78.30
2022-09-19T18:41:34.287Z,77.89
2022-09-19T18:44:02.800Z,78.09
2022-09-19T18:46:29.201Z,78.13
2022-09-19T18:48:58.916Z,78.44
2022-09-19T18:51:28.344Z,79.30
2022-09-19T18:53:59.096Z,78.76
2022-09-19T18:56:25.484Z,79.42
2022-09-19T18:58:53.653Z,80.65
2022-09-19T19:01:21.524Z,79.57
2022-09-19T19:03:53.159Z,80.02
2022-09-19T19:06:21.746Z,80.43
2022-09-19T19:08:53.441Z,80.47
2022-09-19T19:11:30.515Z,80.08
2022-09-19T19:14:01.537Z,80.43
2022-09-19T19:16:33.965Z,80.47
2022-09-19T19:19:02.345Z,81.48
2022-09-19T19:21:36.199Z,80.79
2022-09-19T19:24:04.566Z,80.41
2022-09-19T19:26:38.110Z,81.73
2022-09-19T19:29:05.339Z,81.97
2022-09-19T19:31:32.371Z,82.30
2022-09-19T19:34:02.831Z,82.15
2022-09-19T19:36:29.260Z,81.85
2022-09-19T19:38:55.982Z,82.74
2022-09-19T19:41:24.977Z,82.07
2022-09-19T19:43:53.557Z,82.52
2022-09-19T19:46:24.174Z,82.71
2022-09-19T19:48:52.960Z,83.08
2022-09-19T19:51:21.501Z,83.25
2022-09-19T19:53:49.066Z,83.85
2022-09-19T19:56:21.990Z,84.07
2022-09-19T19:58:50.789Z,84.29
2022-09-19T20:01:20.045Z,84.12
2022-09-19T20:03:50.035Z,83.89
2022-09-19T20:06:21.109Z,84.36
2022-09-19T20:08:47.875Z,84.56
2022-09-19T20:11:14.976Z,84.27
2022-09-19T20:13:41.885Z,84.36
2022-09-19T20:16:14.680Z,84.25
2022-09-19T20:18:44.198Z,83.69
2022-09-19T20:21:17.865Z,83.66
2022-09-19T20:23:45.480Z,81.92
2022-09-19T20:26:18.756Z,83.00
2022-09-19T20:28:49.910Z,84.60
2022-09-19T20:31:20.308Z,85.69
2022-09-19T20:33:47.741Z,85.52
2022-09-19T20:36:16.316Z,86.13
2022-09-19T20:38:45.299Z,85.84
2022-09-19T20:41:13.581Z,85.28
2022-09-19T20:43:44.177Z,85.67
2022-09-19T20:46:15.965Z,85.60
2022-09-19T20:48:44.833Z,84.60
2022-09-19T20:51:17.416Z,84.94
2022-09-19T20:53:54.404Z,85.10
2022-09-19T20:56:29.261Z,85.29
2022-09-19T20:59:00.222Z,86.01
2022-09-19T21:01:31.529Z,86.02
2022-09-19T21:03:58.154Z,86.68
2022-09-19T21:06:26.467Z,86.14
2022-09-19T21:08:54.854Z,85.92
2022-09-19T21:11:24.873Z,84.56
2022-09-19T21:13:53.703Z,85.80
2022-09-19T21:16:23.317Z,85.99
2022-09-19T21:18:52.126Z,86.47
2022-09-19T21:21:23.307Z,86.91
2022-09-19T21:23:51.371Z,85.13
2022-09-19T21:26:20.315Z,85.62
2022-09-19T21:28:48.419Z,86.74
2022-09-19T21:31:18.086Z,86.35
2022-09-19T21:33:46.885Z,86.64
2022-09-19T21:36:13.592Z,87.61
2022-09-19T21:38:40.179Z,87.45
2022-09-19T21:41:09.178Z,86.50
2022-09-19T21:43:38.446Z,85.18
2022-09-19T21:46:16.142Z,85.92
2022-09-19T21:48:44.918Z,86.65
2022-09-19T21:51:13.830Z,87.01
2022-09-19T21:53:40.847Z,85.74
2022-09-19T21:56:12.782Z,85.12
2022-09-19T21:58:39.737Z,86.36
2022-09-19T22:01:10.194Z,87.24
2022-09-19T22:03:36.632Z,87.50
2022-09-19T22:06:03.771Z,87.68
2022-09-19T22:08:31.889Z,86.97
2022-09-19T22:11:03.993Z,86.19
2022-09-19T22:13:31.703Z,86.40
2022-09-19T22:16:04.104Z,87.08
2022-09-19T22:18:31.139Z,87.52
2022-09-19T22:20:57.701Z,87.38
2022-09-19T22:23:28.010Z,87.37
2022-09-19T22:26:12.679Z,86.21
2022-09-19T22:28:40.082Z,85.68
2022-09-19T22:31:09.051Z,86.14
2022-09-19T22:33:37.377Z,86.87
2022-09-19T22:36:06.344Z,87.43
2022-09-19T22:38:33.289Z,87.59
2022-09-19T22:41:08.736Z,87.39
2022-09-19T22:43:35.120Z,87.85
2022-09-19T22:46:12.206Z,87.44
2022-09-19T22:48:44.395Z,87.82
2022-09-19T22:51:12.793Z,87.75
2022-09-19T22:53:39.663Z,87.47
2022-09-19T22:56:17.648Z,87.67
2022-09-19T22:58:44.310Z,87.74
2022-09-19T23:01:20.126Z,86.88
2022-09-19T23:03:47.530Z,87.20
2022-09-19T23:06:17.572Z,87.42
2022-09-19T23:08:50.523Z,87.65
2022-09-19T23:11:17.814Z,86.41
2022-09-19T23:13:47.129Z,85.41
2022-09-19T23:16:24.436Z,85.73
2022-09-19T23:19:02.909Z,85.43
2022-09-19T23:21:35.127Z,85.39
2022-09-19T23:24:02.173Z,86.79
2022-09-19T23:26:28.861Z,86.45
2022-09-19T23:28:55.454Z,86.54
2022-09-19T23:31:22.084Z,86.90
2022-09-19T23:33:49.350Z,86.16
2022-09-19T23:36:18.339Z,86.58
2022-09-19T23:38:46.945Z,87.54
2022-09-19T23:41:14.725Z,86.56
2022-09-19T23:43:41.282Z,86.53
2022-09-19T23:46:08.220Z,87.00
2022-09-19T23:48:35.923Z,87.29
2022-09-19T23:51:09.883Z,86.90
2022-09-19T23:53:41.574Z,87.15
2022-09-19T23:56:09.298Z,87.13
2022-09-19T23:58:36.263Z,87.70
